sensor_id;sensor_type;location;lat;lon;timestamp;P1;durP1;ratioP1;P2;durP2;ratioP2
6282;SDS011;3174;53.486;9.568;2023-02-11T00:00:34;26.43;;;12.27;;
6282;SDS011;3174;53.486;9.568;2023-02-11T00:03:05;31.40;;;12.07;;
6282;SDS011;3174;53.486;9.568;2023-02-11T00:05:34;31.47;;;13.80;;
6282;SDS011;3174;53.486;9.568;2023-02-11T00:08:02;28.87;;;13.60;;
6282;SDS011;3174;53.486;9.568;2023-02-11T00:10:30;28.53;;;13.37;;
6282;SDS011;3174;53.486;9.568;2023-02-11T00:12:58;28.27;;;12.40;;
6282;SDS011;3174;53.486;9.568;2023-02-11T00:15:26;28.40;;;12.57;;
6282;SDS011;3174;53.486;9.568;2023-02-11T00:17:55;26.63;;;12.63;;
6282;SDS011;3174;53.486;9.568;2023-02-11T00:20:23;33.40;;;13.67;;
6282;SDS011;3174;53.486;9.568;2023-02-11T00:22:51;26.73;;;13.33;;
6282;SDS011;3174;53.486;9.568;2023-02-11T00:25:19;27.93;;;12.83;;
6282;SDS011;3174;53.486;9.568;2023-02-11T00:27:47;29.97;;;14.20;;
6282;SDS011;3174;53.486;9.568;2023-02-11T00:30:15;27.27;;;13.90;;
6282;SDS011;3174;53.486;9.568;2023-02-11T00:32:43;32.10;;;12.20;;
6282;SDS011;3174;53.486;9.568;2023-02-11T00:35:12;26.37;;;12.63;;
6282;SDS011;3174;53.486;9.568;2023-02-11T00:37:40;31.50;;;14.43;;
6282;SDS011;3174;53.486;9.568;2023-02-11T00:40:08;29.20;;;12.50;;
6282;SDS011;3174;53.486;9.568;2023-02-11T00:42:37;27.20;;;14.27;;
6282;SDS011;3174;53.486;9.568;2023-02-11T00:45:06;27.20;;;14.13;;
6282;SDS011;3174;53.486;9.568;2023-02-11T00:47:35;34.20;;;14.23;;
6282;SDS011;3174;53.486;9.568;2023-02-11T00:50:03;28.70;;;12.70;;
6282;SDS011;3174;53.486;9.568;2023-02-11T00:52:34;25.73;;;13.20;;
6282;SDS011;3174;53.486;9.568;2023-02-11T00:55:02;36.13;;;14.63;;
6282;SDS011;3174;53.486;9.568;2023-02-11T00:57:30;27.13;;;13.77;;
6282;SDS011;3174;53.486;9.568;2023-02-11T00:59:58;29.57;;;12.17;;
6282;SDS011;3174;53.486;9.568;2023-02-11T01:02:26;29.67;;;13.07;;
6282;SDS011;3174;53.486;9.568;2023-02-11T01:04:54;28.73;;;12.57;;
6282;SDS011;3174;53.486;9.568;2023-02-11T01:07:22;31.13;;;13.17;;
6282;SDS011;3174;53.486;9.568;2023-02-11T01:09:51;34.07;;;14.13;;
6282;SDS011;3174;53.486;9.568;2023-02-11T01:12:19;36.27;;;13.67;;
6282;SDS011;3174;53.486;9.568;2023-02-11T01:14:47;31.10;;;14.17;;
6282;SDS011;3174;53.486;9.568;2023-02-11T01:17:15;33.63;;;15.23;;
6282;SDS011;3174;53.486;9.568;2023-02-11T01:19:43;28.87;;;12.93;;
6282;SDS011;3174;53.486;9.568;2023-02-11T01:22:11;32.37;;;13.83;;
6282;SDS011;3174;53.486;9.568;2023-02-11T01:24:39;32.67;;;13.60;;
6282;SDS011;3174;53.486;9.568;2023-02-11T01:27:08;31.00;;;14.33;;
6282;SDS011;3174;53.486;9.568;2023-02-11T01:29:36;30.87;;;13.67;;
6282;SDS011;3174;53.486;9.568;2023-02-11T01:32:04;31.17;;;13.67;;
6282;SDS011;3174;53.486;9.568;2023-02-11T01:34:32;29.07;;;13.50;;
6282;SDS011;3174;53.486;9.568;2023-02-11T01:37:00;26.23;;;12.67;;
6282;SDS011;3174;53.486;9.568;2023-02-11T01:39:28;31.67;;;13.90;;
6282;SDS011;3174;53.486;9.568;2023-02-11T01:41:59;33.33;;;14.33;;
6282;SDS011;3174;53.486;9.568;2023-02-11T01:44:29;33.90;;;14.17;;
6282;SDS011;3174;53.486;9.568;2023-02-11T01:46:58;23.57;;;11.40;;
6282;SDS011;3174;53.486;9.568;2023-02-11T01:49:27;33.50;;;13.00;;
6282;SDS011;3174;53.486;9.568;2023-02-11T01:51:58;31.33;;;13.57;;
6282;SDS011;3174;53.486;9.568;2023-02-11T01:54:29;36.23;;;13.67;;
6282;SDS011;3174;53.486;9.568;2023-02-11T01:57:17;32.60;;;13.60;;
6282;SDS011;3174;53.486;9.568;2023-02-11T01:59:53;32.87;;;13.03;;
6282;SDS011;3174;53.486;9.568;2023-02-11T02:02:28;32.93;;;12.83;;
6282;SDS011;3174;53.486;9.568;2023-02-11T02:05:02;28.43;;;13.10;;
6282;SDS011;3174;53.486;9.568;2023-02-11T02:07:33;28.47;;;13.10;;
6282;SDS011;3174;53.486;9.568;2023-02-11T02:10:04;32.57;;;13.17;;
6282;SDS011;3174;53.486;9.568;2023-02-11T02:12:36;29.60;;;12.13;;
6282;SDS011;3174;53.486;9.568;2023-02-11T02:15:13;23.57;;;11.27;;
6282;SDS011;3174;53.486;9.568;2023-02-11T02:17:47;29.00;;;11.53;;
6282;SDS011;3174;53.486;9.568;2023-02-11T02:23:30;29.63;;;13.07;;
6282;SDS011;3174;53.486;9.568;2023-02-11T02:34:48;29.93;;;11.07;;
6282;SDS011;3174;53.486;9.568;2023-02-11T02:37:19;28.60;;;11.53;;
6282;SDS011;3174;53.486;9.568;2023-02-11T02:39:49;28.93;;;11.23;;
6282;SDS011;3174;53.486;9.568;2023-02-11T02:42:17;34.07;;;11.87;;
6282;SDS011;3174;53.486;9.568;2023-02-11T02:44:47;23.17;;;11.23;;
6282;SDS011;3174;53.486;9.568;2023-02-11T02:47:15;30.10;;;10.77;;
6282;SDS011;3174;53.486;9.568;2023-02-11T02:49:44;31.97;;;11.37;;
6282;SDS011;3174;53.486;9.568;2023-02-11T02:52:18;26.90;;;11.40;;
6282;SDS011;3174;53.486;9.568;2023-02-11T02:55:02;21.33;;;9.97;;
6282;SDS011;3174;53.486;9.568;2023-02-11T02:57:43;28.43;;;10.77;;
6282;SDS011;3174;53.486;9.568;2023-02-11T03:00:21;26.10;;;10.50;;
6282;SDS011;3174;53.486;9.568;2023-02-11T03:02:54;25.03;;;9.97;;
6282;SDS011;3174;53.486;9.568;2023-02-11T03:05:32;21.90;;;9.77;;
6282;SDS011;3174;53.486;9.568;2023-02-11T03:08:06;20.63;;;9.63;;
6282;SDS011;3174;53.486;9.568;2023-02-11T03:10:37;18.30;;;9.80;;
6282;SDS011;3174;53.486;9.568;2023-02-11T03:13:07;23.50;;;9.87;;
6282;SDS011;3174;53.486;9.568;2023-02-11T03:15:36;27.33;;;10.13;;
6282;SDS011;3174;53.486;9.568;2023-02-11T03:18:05;25.33;;;9.37;;
6282;SDS011;3174;53.486;9.568;2023-02-11T03:20:37;28.00;;;9.80;;
6282;SDS011;3174;53.486;9.568;2023-02-11T03:23:10;24.83;;;9.57;;
6282;SDS011;3174;53.486;9.568;2023-02-11T03:25:41;23.33;;;9.20;;
6282;SDS011;3174;53.486;9.568;2023-02-11T03:28:14;20.90;;;8.57;;
6282;SDS011;3174;53.486;9.568;2023-02-11T03:30:46;19.23;;;9.10;;
6282;SDS011;3174;53.486;9.568;2023-02-11T03:33:17;23.33;;;9.70;;
6282;SDS011;3174;53.486;9.568;2023-02-11T03:35:49;21.00;;;9.43;;
6282;SDS011;3174;53.486;9.568;2023-02-11T03:38:20;19.37;;;8.07;;
6282;SDS011;3174;53.486;9.568;2023-02-11T03:40:49;27.33;;;9.73;;
6282;SDS011;3174;53.486;9.568;2023-02-11T03:43:19;18.63;;;8.73;;
6282;SDS011;3174;53.486;9.568;2023-02-11T03:45:49;19.97;;;8.67;;
6282;SDS011;3174;53.486;9.568;2023-02-11T03:48:19;20.57;;;8.33;;
6282;SDS011;3174;53.486;9.568;2023-02-11T03:50:51;19.40;;;8.93;;
6282;SDS011;3174;53.486;9.568;2023-02-11T03:53:21;27.43;;;8.67;;
6282;SDS011;3174;53.486;9.568;2023-02-11T03:55:50;20.93;;;8.87;;
6282;SDS011;3174;53.486;9.568;2023-02-11T03:58:18;24.70;;;8.57;;
6282;SDS011;3174;53.486;9.568;2023-02-11T04:00:46;20.20;;;9.23;;
6282;SDS011;3174;53.486;9.568;2023-02-11T04:03:15;20.23;;;8.83;;
6282;SDS011;3174;53.486;9.568;2023-02-11T04:05:44;31.83;;;9.20;;
6282;SDS011;3174;53.486;9.568;2023-02-11T04:08:13;24.07;;;8.73;;
6282;SDS011;3174;53.486;9.568;2023-02-11T04:10:41;22.50;;;7.63;;
6282;SDS011;3174;53.486;9.568;2023-02-11T04:13:09;23.20;;;9.10;;
6282;SDS011;3174;53.486;9.568;2023-02-11T04:15:37;26.97;;;8.07;;
6282;SDS011;3174;53.486;9.568;2023-02-11T04:18:05;21.83;;;7.57;;
6282;SDS011;3174;53.486;9.568;2023-02-11T04:20:33;26.23;;;8.37;;
6282;SDS011;3174;53.486;9.568;2023-02-11T04:23:01;22.83;;;8.33;;
6282;SDS011;3174;53.486;9.568;2023-02-11T04:25:30;21.20;;;8.80;;
6282;SDS011;3174;53.486;9.568;2023-02-11T04:27:58;22.03;;;8.93;;
6282;SDS011;3174;53.486;9.568;2023-02-11T04:30:26;28.23;;;8.27;;
6282;SDS011;3174;53.486;9.568;2023-02-11T04:32:54;17.27;;;6.87;;
6282;SDS011;3174;53.486;9.568;2023-02-11T04:35:22;23.07;;;8.40;;
6282;SDS011;3174;53.486;9.568;2023-02-11T04:37:50;19.60;;;8.57;;
6282;SDS011;3174;53.486;9.568;2023-02-11T04:40:18;20.47;;;8.23;;
6282;SDS011;3174;53.486;9.568;2023-02-11T04:42:47;18.97;;;7.00;;
6282;SDS011;3174;53.486;9.568;2023-02-11T04:45:15;17.23;;;7.60;;
6282;SDS011;3174;53.486;9.568;2023-02-11T04:47:43;25.83;;;9.17;;
6282;SDS011;3174;53.486;9.568;2023-02-11T04:50:11;20.17;;;7.63;;
6282;SDS011;3174;53.486;9.568;2023-02-11T04:52:39;16.23;;;7.57;;
6282;SDS011;3174;53.486;9.568;2023-02-11T04:55:07;18.17;;;6.67;;
6282;SDS011;3174;53.486;9.568;2023-02-11T04:57:35;17.97;;;7.07;;
6282;SDS011;3174;53.486;9.568;2023-02-11T05:00:05;23.57;;;7.03;;
6282;SDS011;3174;53.486;9.568;2023-02-11T05:02:35;20.97;;;7.73;;
6282;SDS011;3174;53.486;9.568;2023-02-11T05:05:03;18.47;;;7.20;;
6282;SDS011;3174;53.486;9.568;2023-02-11T05:07:31;20.43;;;7.37;;
6282;SDS011;3174;53.486;9.568;2023-02-11T05:09:59;20.00;;;7.90;;
6282;SDS011;3174;53.486;9.568;2023-02-11T05:12:27;18.00;;;7.43;;
6282;SDS011;3174;53.486;9.568;2023-02-11T05:14:55;21.13;;;7.33;;
6282;SDS011;3174;53.486;9.568;2023-02-11T05:17:25;20.67;;;7.93;;
6282;SDS011;3174;53.486;9.568;2023-02-11T05:19:52;21.07;;;7.33;;
6282;SDS011;3174;53.486;9.568;2023-02-11T05:22:20;18.10;;;7.10;;
6282;SDS011;3174;53.486;9.568;2023-02-11T05:24:48;19.70;;;7.80;;
6282;SDS011;3174;53.486;9.568;2023-02-11T05:27:16;23.37;;;7.17;;
6282;SDS011;3174;53.486;9.568;2023-02-11T05:29:44;20.90;;;6.97;;
6282;SDS011;3174;53.486;9.568;2023-02-11T05:32:12;19.87;;;7.17;;
6282;SDS011;3174;53.486;9.568;2023-02-11T05:34:41;17.27;;;6.87;;
6282;SDS011;3174;53.486;9.568;2023-02-11T05:37:09;22.00;;;7.57;;
6282;SDS011;3174;53.486;9.568;2023-02-11T05:39:37;15.97;;;6.57;;
6282;SDS011;3174;53.486;9.568;2023-02-11T05:42:05;18.30;;;7.67;;
6282;SDS011;3174;53.486;9.568;2023-02-11T05:44:33;19.73;;;7.37;;
6282;SDS011;3174;53.486;9.568;2023-02-11T05:47:01;17.03;;;7.93;;
6282;SDS011;3174;53.486;9.568;2023-02-11T05:49:29;14.00;;;6.97;;
6282;SDS011;3174;53.486;9.568;2023-02-11T05:51:58;19.47;;;7.37;;
6282;SDS011;3174;53.486;9.568;2023-02-11T05:54:26;15.00;;;7.13;;
6282;SDS011;3174;53.486;9.568;2023-02-11T05:56:54;14.73;;;6.90;;
6282;SDS011;3174;53.486;9.568;2023-02-11T05:59:22;15.97;;;7.50;;
6282;SDS011;3174;53.486;9.568;2023-02-11T06:01:50;23.40;;;8.77;;
6282;SDS011;3174;53.486;9.568;2023-02-11T06:04:18;15.93;;;7.93;;
6282;SDS011;3174;53.486;9.568;2023-02-11T06:06:46;19.57;;;7.93;;
6282;SDS011;3174;53.486;9.568;2023-02-11T06:09:15;17.53;;;7.10;;
6282;SDS011;3174;53.486;9.568;2023-02-11T06:11:43;21.17;;;8.60;;
6282;SDS011;3174;53.486;9.568;2023-02-11T06:14:11;21.57;;;8.40;;
6282;SDS011;3174;53.486;9.568;2023-02-11T06:16:39;17.07;;;7.60;;
6282;SDS011;3174;53.486;9.568;2023-02-11T06:19:07;15.63;;;7.03;;
6282;SDS011;3174;53.486;9.568;2023-02-11T06:21:35;14.00;;;6.47;;
6282;SDS011;3174;53.486;9.568;2023-02-11T06:24:10;19.17;;;8.37;;
6282;SDS011;3174;53.486;9.568;2023-02-11T06:26:40;19.20;;;7.57;;
6282;SDS011;3174;53.486;9.568;2023-02-11T06:29:08;15.43;;;7.00;;
6282;SDS011;3174;53.486;9.568;2023-02-11T06:31:36;21.60;;;8.63;;
6282;SDS011;3174;53.486;9.568;2023-02-11T06:34:05;16.40;;;7.73;;
6282;SDS011;3174;53.486;9.568;2023-02-11T06:36:33;15.50;;;7.57;;
6282;SDS011;3174;53.486;9.568;2023-02-11T06:39:01;14.50;;;7.10;;
6282;SDS011;3174;53.486;9.568;2023-02-11T06:41:29;14.87;;;7.20;;
6282;SDS011;3174;53.486;9.568;2023-02-11T06:43:59;15.20;;;7.03;;
6282;SDS011;3174;53.486;9.568;2023-02-11T06:46:26;21.47;;;8.97;;
6282;SDS011;3174;53.486;9.568;2023-02-11T06:48:54;15.87;;;7.83;;
6282;SDS011;3174;53.486;9.568;2023-02-11T06:51:23;17.00;;;7.97;;
6282;SDS011;3174;53.486;9.568;2023-02-11T06:53:51;19.90;;;7.73;;
6282;SDS011;3174;53.486;9.568;2023-02-11T06:56:19;19.87;;;8.30;;
6282;SDS011;3174;53.486;9.568;2023-02-11T06:58:50;17.87;;;7.03;;
6282;SDS011;3174;53.486;9.568;2023-02-11T07:01:20;19.40;;;7.63;;
6282;SDS011;3174;53.486;9.568;2023-02-11T07:03:49;18.03;;;8.37;;
6282;SDS011;3174;53.486;9.568;2023-02-11T07:06:18;18.93;;;7.97;;
6282;SDS011;3174;53.486;9.568;2023-02-11T07:08:46;18.53;;;8.13;;
6282;SDS011;3174;53.486;9.568;2023-02-11T07:11:16;15.23;;;7.60;;
6282;SDS011;3174;53.486;9.568;2023-02-11T07:13:46;18.27;;;8.00;;
6282;SDS011;3174;53.486;9.568;2023-02-11T07:16:14;18.20;;;8.10;;
6282;SDS011;3174;53.486;9.568;2023-02-11T07:18:45;18.20;;;7.57;;
6282;SDS011;3174;53.486;9.568;2023-02-11T07:21:14;20.87;;;8.50;;
6282;SDS011;3174;53.486;9.568;2023-02-11T07:23:44;11.90;;;6.87;;
6282;SDS011;3174;53.486;9.568;2023-02-11T07:26:14;21.23;;;7.83;;
6282;SDS011;3174;53.486;9.568;2023-02-11T07:28:43;16.27;;;7.97;;
6282;SDS011;3174;53.486;9.568;2023-02-11T07:31:13;16.03;;;7.10;;
6282;SDS011;3174;53.486;9.568;2023-02-11T07:33:42;14.90;;;7.30;;
6282;SDS011;3174;53.486;9.568;2023-02-11T07:36:13;19.87;;;7.60;;
6282;SDS011;3174;53.486;9.568;2023-02-11T07:38:41;22.83;;;9.50;;
6282;SDS011;3174;53.486;9.568;2023-02-11T07:41:10;19.80;;;7.77;;
6282;SDS011;3174;53.486;9.568;2023-02-11T07:43:39;12.97;;;7.87;;
6282;SDS011;3174;53.486;9.568;2023-02-11T07:46:08;18.07;;;8.03;;
6282;SDS011;3174;53.486;9.568;2023-02-11T07:48:37;19.63;;;8.80;;
6282;SDS011;3174;53.486;9.568;2023-02-11T07:51:06;22.60;;;8.67;;
6282;SDS011;3174;53.486;9.568;2023-02-11T07:53:36;21.93;;;8.93;;
6282;SDS011;3174;53.486;9.568;2023-02-11T07:56:05;21.63;;;8.50;;
6282;SDS011;3174;53.486;9.568;2023-02-11T07:58:33;19.47;;;8.73;;
6282;SDS011;3174;53.486;9.568;2023-02-11T08:01:02;20.67;;;8.70;;
6282;SDS011;3174;53.486;9.568;2023-02-11T08:03:31;16.97;;;7.27;;
6282;SDS011;3174;53.486;9.568;2023-02-11T08:06:01;16.47;;;8.00;;
6282;SDS011;3174;53.486;9.568;2023-02-11T08:08:30;15.07;;;7.83;;
6282;SDS011;3174;53.486;9.568;2023-02-11T08:11:02;20.40;;;8.20;;
6282;SDS011;3174;53.486;9.568;2023-02-11T08:13:33;16.63;;;7.63;;
6282;SDS011;3174;53.486;9.568;2023-02-11T08:16:01;18.80;;;8.00;;
6282;SDS011;3174;53.486;9.568;2023-02-11T08:18:29;18.93;;;8.47;;
6282;SDS011;3174;53.486;9.568;2023-02-11T08:21:02;16.30;;;8.20;;
6282;SDS011;3174;53.486;9.568;2023-02-11T08:23:30;19.10;;;8.80;;
6282;SDS011;3174;53.486;9.568;2023-02-11T08:26:01;16.43;;;7.60;;
6282;SDS011;3174;53.486;9.568;2023-02-11T08:28:29;19.17;;;8.67;;
6282;SDS011;3174;53.486;9.568;2023-02-11T08:31:00;18.37;;;8.03;;
6282;SDS011;3174;53.486;9.568;2023-02-11T08:33:31;15.23;;;7.80;;
6282;SDS011;3174;53.486;9.568;2023-02-11T08:35:59;16.47;;;7.63;;
6282;SDS011;3174;53.486;9.568;2023-02-11T08:38:29;20.57;;;8.40;;
6282;SDS011;3174;53.486;9.568;2023-02-11T08:40:58;17.23;;;8.10;;
6282;SDS011;3174;53.486;9.568;2023-02-11T08:43:27;16.80;;;8.00;;
6282;SDS011;3174;53.486;9.568;2023-02-11T08:45:55;21.20;;;8.77;;
6282;SDS011;3174;53.486;9.568;2023-02-11T08:48:27;15.73;;;7.70;;
6282;SDS011;3174;53.486;9.568;2023-02-11T08:50:55;21.67;;;8.53;;
6282;SDS011;3174;53.486;9.568;2023-02-11T08:53:23;26.63;;;13.17;;
6282;SDS011;3174;53.486;9.568;2023-02-11T08:55:52;19.13;;;9.70;;
6282;SDS011;3174;53.486;9.568;2023-02-11T08:58:21;14.23;;;8.17;;
6282;SDS011;3174;53.486;9.568;2023-02-11T09:00:50;21.13;;;9.17;;
6282;SDS011;3174;53.486;9.568;2023-02-11T09:03:19;20.07;;;8.83;;
6282;SDS011;3174;53.486;9.568;2023-02-11T09:05:48;21.60;;;8.90;;
6282;SDS011;3174;53.486;9.568;2023-02-11T09:08:18;20.13;;;9.20;;
6282;SDS011;3174;53.486;9.568;2023-02-11T09:10:47;16.07;;;8.53;;
6282;SDS011;3174;53.486;9.568;2023-02-11T09:13:15;17.57;;;8.27;;
6282;SDS011;3174;53.486;9.568;2023-02-11T09:15:43;16.73;;;9.03;;
6282;SDS011;3174;53.486;9.568;2023-02-11T09:18:13;18.87;;;9.20;;
6282;SDS011;3174;53.486;9.568;2023-02-11T09:20:41;20.93;;;9.33;;
6282;SDS011;3174;53.486;9.568;2023-02-11T09:23:09;24.57;;;8.70;;
6282;SDS011;3174;53.486;9.568;2023-02-11T09:25:38;22.90;;;9.90;;
6282;SDS011;3174;53.486;9.568;2023-02-11T09:28:06;28.77;;;13.90;;
6282;SDS011;3174;53.486;9.568;2023-02-11T09:30:34;25.83;;;10.77;;
6282;SDS011;3174;53.486;9.568;2023-02-11T09:33:03;21.47;;;8.37;;
6282;SDS011;3174;53.486;9.568;2023-02-11T09:35:32;20.80;;;9.43;;
6282;SDS011;3174;53.486;9.568;2023-02-11T09:38:01;19.50;;;9.00;;
6282;SDS011;3174;53.486;9.568;2023-02-11T09:40:29;16.73;;;8.53;;
6282;SDS011;3174;53.486;9.568;2023-02-11T09:42:59;18.63;;;7.80;;
6282;SDS011;3174;53.486;9.568;2023-02-11T09:45:30;18.43;;;9.40;;
6282;SDS011;3174;53.486;9.568;2023-02-11T09:47:59;18.50;;;8.40;;
6282;SDS011;3174;53.486;9.568;2023-02-11T09:50:33;28.00;;;10.13;;
6282;SDS011;3174;53.486;9.568;2023-02-11T09:53:03;21.30;;;8.43;;
6282;SDS011;3174;53.486;9.568;2023-02-11T09:55:33;22.70;;;8.93;;
6282;SDS011;3174;53.486;9.568;2023-02-11T09:58:09;21.60;;;8.37;;
6282;SDS011;3174;53.486;9.568;2023-02-11T10:00:39;14.63;;;7.17;;
6282;SDS011;3174;53.486;9.568;2023-02-11T10:03:19;25.80;;;8.00;;
6282;SDS011;3174;53.486;9.568;2023-02-11T10:08:49;18.27;;;7.30;;
6282;SDS011;3174;53.486;9.568;2023-02-11T10:11:28;15.10;;;7.20;;
6282;SDS011;3174;53.486;9.568;2023-02-11T10:14:00;17.33;;;7.03;;
6282;SDS011;3174;53.486;9.568;2023-02-11T10:16:44;18.20;;;7.70;;
6282;SDS011;3174;53.486;9.568;2023-02-11T10:19:23;20.03;;;7.60;;
6282;SDS011;3174;53.486;9.568;2023-02-11T10:22:02;16.23;;;6.50;;
6282;SDS011;3174;53.486;9.568;2023-02-11T10:24:34;17.87;;;5.30;;
6282;SDS011;3174;53.486;9.568;2023-02-11T10:27:03;13.60;;;6.20;;
6282;SDS011;3174;53.486;9.568;2023-02-11T10:29:39;21.27;;;6.63;;
6282;SDS011;3174;53.486;9.568;2023-02-11T10:32:12;15.83;;;6.47;;
6282;SDS011;3174;53.486;9.568;2023-02-11T10:34:42;19.33;;;7.07;;
6282;SDS011;3174;53.486;9.568;2023-02-11T10:37:11;17.40;;;5.73;;
6282;SDS011;3174;53.486;9.568;2023-02-11T10:39:40;20.27;;;6.30;;
6282;SDS011;3174;53.486;9.568;2023-02-11T10:42:09;16.20;;;5.63;;
6282;SDS011;3174;53.486;9.568;2023-02-11T10:44:40;17.20;;;5.57;;
6282;SDS011;3174;53.486;9.568;2023-02-11T10:47:11;17.07;;;7.07;;
6282;SDS011;3174;53.486;9.568;2023-02-11T10:49:41;17.83;;;5.83;;
6282;SDS011;3174;53.486;9.568;2023-02-11T10:52:21;13.17;;;6.50;;
6282;SDS011;3174;53.486;9.568;2023-02-11T10:55:01;22.73;;;6.23;;
6282;SDS011;3174;53.486;9.568;2023-02-11T10:57:34;19.67;;;6.53;;
6282;SDS011;3174;53.486;9.568;2023-02-11T11:00:06;17.57;;;5.73;;
6282;SDS011;3174;53.486;9.568;2023-02-11T11:02:51;19.53;;;7.10;;
6282;SDS011;3174;53.486;9.568;2023-02-11T11:05:22;14.67;;;6.23;;
6282;SDS011;3174;53.486;9.568;2023-02-11T11:07:57;27.27;;;7.13;;
6282;SDS011;3174;53.486;9.568;2023-02-11T11:10:33;19.37;;;7.20;;
6282;SDS011;3174;53.486;9.568;2023-02-11T11:13:28;15.50;;;5.80;;
6282;SDS011;3174;53.486;9.568;2023-02-11T11:18:50;13.70;;;7.10;;
6282;SDS011;3174;53.486;9.568;2023-02-11T11:21:21;19.07;;;7.00;;
6282;SDS011;3174;53.486;9.568;2023-02-11T11:23:55;16.03;;;5.63;;
6282;SDS011;3174;53.486;9.568;2023-02-11T11:26:24;16.13;;;6.17;;
6282;SDS011;3174;53.486;9.568;2023-02-11T11:28:57;18.90;;;5.43;;
6282;SDS011;3174;53.486;9.568;2023-02-11T11:31:28;15.53;;;6.30;;
6282;SDS011;3174;53.486;9.568;2023-02-11T11:33:59;18.50;;;6.57;;
6282;SDS011;3174;53.486;9.568;2023-02-11T11:36:32;12.47;;;5.17;;
6282;SDS011;3174;53.486;9.568;2023-02-11T11:39:09;13.80;;;4.17;;
6282;SDS011;3174;53.486;9.568;2023-02-11T11:41:50;17.23;;;4.67;;
6282;SDS011;3174;53.486;9.568;2023-02-11T11:44:27;10.70;;;4.70;;
6282;SDS011;3174;53.486;9.568;2023-02-11T11:47:07;15.60;;;5.03;;
6282;SDS011;3174;53.486;9.568;2023-02-11T11:49:47;18.43;;;4.10;;
6282;SDS011;3174;53.486;9.568;2023-02-11T11:52:19;17.27;;;5.20;;
6282;SDS011;3174;53.486;9.568;2023-02-11T11:54:57;14.90;;;5.73;;
6282;SDS011;3174;53.486;9.568;2023-02-11T11:57:28;8.00;;;3.80;;
6282;SDS011;3174;53.486;9.568;2023-02-11T11:59:58;23.77;;;8.63;;
6282;SDS011;3174;53.486;9.568;2023-02-11T12:02:34;16.47;;;6.43;;
6282;SDS011;3174;53.486;9.568;2023-02-11T12:05:17;13.10;;;5.13;;
6282;SDS011;3174;53.486;9.568;2023-02-11T12:07:53;11.70;;;4.77;;
6282;SDS011;3174;53.486;9.568;2023-02-11T12:13:18;12.20;;;5.90;;
6282;SDS011;3174;53.486;9.568;2023-02-11T12:15:54;25.17;;;9.27;;
6282;SDS011;3174;53.486;9.568;2023-02-11T12:18:34;15.97;;;4.57;;
6282;SDS011;3174;53.486;9.568;2023-02-11T12:21:27;12.60;;;4.93;;
6282;SDS011;3174;53.486;9.568;2023-02-11T12:24:13;8.37;;;3.67;;
6282;SDS011;3174;53.486;9.568;2023-02-11T12:26:52;13.20;;;4.30;;
6282;SDS011;3174;53.486;9.568;2023-02-11T12:29:26;7.50;;;4.07;;
6282;SDS011;3174;53.486;9.568;2023-02-11T12:32:02;13.83;;;5.47;;
6282;SDS011;3174;53.486;9.568;2023-02-11T12:34:43;14.37;;;5.33;;
6282;SDS011;3174;53.486;9.568;2023-02-11T12:37:27;11.97;;;4.30;;
6282;SDS011;3174;53.486;9.568;2023-02-11T12:40:02;10.70;;;5.23;;
6282;SDS011;3174;53.486;9.568;2023-02-11T12:42:45;11.07;;;3.77;;
6282;SDS011;3174;53.486;9.568;2023-02-11T12:45:44;12.90;;;5.10;;
6282;SDS011;3174;53.486;9.568;2023-02-11T12:48:34;15.77;;;5.33;;
6282;SDS011;3174;53.486;9.568;2023-02-11T12:51:09;11.43;;;4.60;;
6282;SDS011;3174;53.486;9.568;2023-02-11T12:53:50;8.70;;;3.53;;
6282;SDS011;3174;53.486;9.568;2023-02-11T12:56:34;7.23;;;2.50;;
6282;SDS011;3174;53.486;9.568;2023-02-11T12:59:07;8.10;;;3.20;;
6282;SDS011;3174;53.486;9.568;2023-02-11T13:01:39;4.17;;;2.40;;
6282;SDS011;3174;53.486;9.568;2023-02-11T13:04:10;3.33;;;2.20;;
6282;SDS011;3174;53.486;9.568;2023-02-11T13:06:45;5.23;;;2.30;;
6282;SDS011;3174;53.486;9.568;2023-02-11T13:09:16;9.17;;;2.87;;
6282;SDS011;3174;53.486;9.568;2023-02-11T13:11:48;6.07;;;2.47;;
6282;SDS011;3174;53.486;9.568;2023-02-11T13:14:22;5.57;;;2.70;;
6282;SDS011;3174;53.486;9.568;2023-02-11T13:16:52;10.73;;;3.20;;
6282;SDS011;3174;53.486;9.568;2023-02-11T13:19:22;6.80;;;2.63;;
6282;SDS011;3174;53.486;9.568;2023-02-11T13:22:00;11.77;;;4.87;;
6282;SDS011;3174;53.486;9.568;2023-02-11T13:24:34;11.23;;;3.53;;
6282;SDS011;3174;53.486;9.568;2023-02-11T13:27:08;15.20;;;3.47;;
6282;SDS011;3174;53.486;9.568;2023-02-11T13:29:48;10.70;;;4.37;;
6282;SDS011;3174;53.486;9.568;2023-02-11T13:33:01;9.50;;;3.30;;
6282;SDS011;3174;53.486;9.568;2023-02-11T13:35:32;8.03;;;3.37;;
6282;SDS011;3174;53.486;9.568;2023-02-11T13:38:01;11.10;;;3.17;;
6282;SDS011;3174;53.486;9.568;2023-02-11T13:40:30;8.13;;;3.10;;
6282;SDS011;3174;53.486;9.568;2023-02-11T13:43:01;7.77;;;3.27;;
6282;SDS011;3174;53.486;9.568;2023-02-11T13:45:32;15.73;;;3.20;;
6282;SDS011;3174;53.486;9.568;2023-02-11T13:48:04;10.70;;;4.20;;
6282;SDS011;3174;53.486;9.568;2023-02-11T13:50:35;12.00;;;3.70;;
6282;SDS011;3174;53.486;9.568;2023-02-11T13:53:05;12.43;;;4.17;;
6282;SDS011;3174;53.486;9.568;2023-02-11T13:55:34;11.20;;;5.43;;
6282;SDS011;3174;53.486;9.568;2023-02-11T13:58:15;12.60;;;4.03;;
6282;SDS011;3174;53.486;9.568;2023-02-11T14:00:46;15.57;;;5.23;;
6282;SDS011;3174;53.486;9.568;2023-02-11T14:03:23;12.23;;;4.00;;
6282;SDS011;3174;53.486;9.568;2023-02-11T14:06:15;13.10;;;4.10;;
6282;SDS011;3174;53.486;9.568;2023-02-11T14:09:31;19.27;;;3.83;;
6282;SDS011;3174;53.486;9.568;2023-02-11T14:12:21;10.67;;;4.73;;
6282;SDS011;3174;53.486;9.568;2023-02-11T14:17:48;5.87;;;2.63;;
6282;SDS011;3174;53.486;9.568;2023-02-11T14:20:31;16.03;;;4.53;;
6282;SDS011;3174;53.486;9.568;2023-02-11T14:23:01;18.07;;;4.70;;
6282;SDS011;3174;53.486;9.568;2023-02-11T14:25:30;11.83;;;4.40;;
6282;SDS011;3174;53.486;9.568;2023-02-11T14:28:00;11.43;;;3.33;;
6282;SDS011;3174;53.486;9.568;2023-02-11T14:30:38;13.70;;;4.00;;
6282;SDS011;3174;53.486;9.568;2023-02-11T14:36:11;14.10;;;4.03;;
6282;SDS011;3174;53.486;9.568;2023-02-11T14:38:51;11.67;;;4.77;;
6282;SDS011;3174;53.486;9.568;2023-02-11T14:41:25;9.03;;;4.37;;
6282;SDS011;3174;53.486;9.568;2023-02-11T14:43:55;13.60;;;3.53;;
6282;SDS011;3174;53.486;9.568;2023-02-11T14:46:25;14.30;;;3.13;;
6282;SDS011;3174;53.486;9.568;2023-02-11T14:48:57;16.10;;;5.53;;
6282;SDS011;3174;53.486;9.568;2023-02-11T14:51:26;18.30;;;4.77;;
6282;SDS011;3174;53.486;9.568;2023-02-11T14:53:57;11.23;;;3.67;;
6282;SDS011;3174;53.486;9.568;2023-02-11T14:56:27;20.00;;;4.43;;
6282;SDS011;3174;53.486;9.568;2023-02-11T14:58:56;10.17;;;3.40;;
6282;SDS011;3174;53.486;9.568;2023-02-11T15:01:26;13.87;;;3.57;;
6282;SDS011;3174;53.486;9.568;2023-02-11T15:03:58;15.67;;;3.33;;
6282;SDS011;3174;53.486;9.568;2023-02-11T15:06:27;12.37;;;5.17;;
6282;SDS011;3174;53.486;9.568;2023-02-11T15:08:57;15.00;;;3.33;;
6282;SDS011;3174;53.486;9.568;2023-02-11T15:11:27;18.60;;;2.90;;
6282;SDS011;3174;53.486;9.568;2023-02-11T15:13:58;21.50;;;3.40;;
6282;SDS011;3174;53.486;9.568;2023-02-11T15:16:33;9.67;;;2.70;;
6282;SDS011;3174;53.486;9.568;2023-02-11T15:19:13;11.50;;;3.00;;
6282;SDS011;3174;53.486;9.568;2023-02-11T15:21:46;13.23;;;2.73;;
6282;SDS011;3174;53.486;9.568;2023-02-11T15:24:23;14.93;;;3.97;;
6282;SDS011;3174;53.486;9.568;2023-02-11T15:26:56;14.43;;;4.00;;
6282;SDS011;3174;53.486;9.568;2023-02-11T15:29:25;15.70;;;3.57;;
6282;SDS011;3174;53.486;9.568;2023-02-11T15:32:04;12.13;;;3.63;;
6282;SDS011;3174;53.486;9.568;2023-02-11T15:34:35;8.57;;;3.00;;
6282;SDS011;3174;53.486;9.568;2023-02-11T15:37:03;9.13;;;2.83;;
6282;SDS011;3174;53.486;9.568;2023-02-11T15:39:32;11.10;;;2.87;;
6282;SDS011;3174;53.486;9.568;2023-02-11T15:42:14;9.87;;;2.97;;
6282;SDS011;3174;53.486;9.568;2023-02-11T15:44:44;12.97;;;3.20;;
6282;SDS011;3174;53.486;9.568;2023-02-11T15:47:19;11.23;;;2.73;;
6282;SDS011;3174;53.486;9.568;2023-02-11T15:49:49;17.73;;;3.57;;
6282;SDS011;3174;53.486;9.568;2023-02-11T15:52:21;11.90;;;3.17;;